createdAt,value
2019-02-23T00:03:47.888Z,12.10
2019-02-23T00:06:35.865Z,13.13
2019-02-23T00:09:17.836Z,13.15
2019-02-23T00:12:05.790Z,12.63
2019-02-23T00:14:47.725Z,13.30
2019-02-23T00:17:35.773Z,13.70
2019-02-23T00:20:17.519Z,12.78
2019-02-23T00:23:05.506Z,13.32
2019-02-23T00:25:47.310Z,13.65
2019-02-23T00:28:35.301Z,12.98
2019-02-23T00:31:17.294Z,12.47
2019-02-23T00:34:05.285Z,13.75
2019-02-23T00:36:47.109Z,13.03
2019-02-23T00:39:35.149Z,11.83
2019-02-23T00:42:17.052Z,12.90
2019-02-23T00:45:05.058Z,12.60
2019-02-23T00:47:46.560Z,11.43
2019-02-23T00:50:28.153Z,13.30
2019-02-23T00:53:16.190Z,13.18
2019-02-23T00:55:57.551Z,12.73
2019-02-23T00:58:45.589Z,12.03
2019-02-23T01:01:26.840Z,14.00
2019-02-23T01:04:14.760Z,12.25
2019-02-23T01:07:02.720Z,14.45
2019-02-23T01:09:44.764Z,13.62
2019-02-23T01:12:32.842Z,13.83
2019-02-23T01:15:16.832Z,14.58
2019-02-23T01:17:58.020Z,13.08
2019-02-23T01:20:45.943Z,12.98
2019-02-23T01:23:14.730Z,13.20
2019-02-23T01:26:02.778Z,13.10
2019-02-23T01:28:50.754Z,13.20
2019-02-23T01:31:32.406Z,13.90
2019-02-23T01:34:14.177Z,12.88
2019-02-23T01:37:02.258Z,12.68
2019-02-23T01:39:44.312Z,13.98
2019-02-23T01:42:32.378Z,12.90
2019-02-23T01:45:14.606Z,13.83
2019-02-23T01:48:02.562Z,12.35
2019-02-23T01:50:44.478Z,12.50
2019-02-23T01:53:32.469Z,12.95
2019-02-23T01:56:14.490Z,12.80
2019-02-23T01:59:02.493Z,12.93
2019-02-23T02:01:44.147Z,11.95
2019-02-23T02:04:31.781Z,13.00
2019-02-23T02:07:13.665Z,12.75
2019-02-23T02:09:55.457Z,12.90
2019-02-23T02:12:43.498Z,15.00
2019-02-23T02:15:31.527Z,13.88
2019-02-23T02:18:13.381Z,12.80
2019-02-23T02:21:01.353Z,15.83
2019-02-23T02:23:43.241Z,15.95
2019-02-23T02:26:31.240Z,14.23
2019-02-23T02:29:13.328Z,13.62
2019-02-23T02:32:01.377Z,15.35
2019-02-23T02:34:29.958Z,13.43
2019-02-23T02:37:11.842Z,14.87
2019-02-23T02:39:59.825Z,15.35
2019-02-23T02:42:47.865Z,16.20
2019-02-23T02:45:29.572Z,15.45
2019-02-23T02:48:17.762Z,14.85
2019-02-23T02:50:59.963Z,14.33
2019-02-23T02:54:00.481Z,14.87
2019-02-23T02:56:32.245Z,16.80
2019-02-23T02:59:20.480Z,15.35
2019-02-23T03:02:02.667Z,15.43
2019-02-23T03:04:50.962Z,15.18
2019-02-23T03:07:33.008Z,14.45
2019-02-23T03:10:21.185Z,15.53
2019-02-23T03:13:09.425Z,15.30
2019-02-23T03:15:38.369Z,14.07
2019-02-23T03:18:26.551Z,14.50
2019-02-23T03:21:14.818Z,16.32
2019-02-23T03:23:56.537Z,15.20
2019-02-23T03:26:44.812Z,16.37
2019-02-23T03:29:29.070Z,18.02
2019-02-23T03:32:10.761Z,15.85
2019-02-23T03:34:58.961Z,16.05
2019-02-23T03:37:40.773Z,16.27
2019-02-23T03:40:29.004Z,16.45
2019-02-23T03:43:11.332Z,16.73
2019-02-23T03:45:59.495Z,16.82
2019-02-23T03:48:41.761Z,17.92
2019-02-23T03:51:29.911Z,18.65
2019-02-23T03:53:58.941Z,17.10
2019-02-23T03:56:47.081Z,16.97
2019-02-23T03:59:29.230Z,15.93
2019-02-23T04:02:17.445Z,16.67
2019-02-23T04:04:59.450Z,16.73
2019-02-23T04:07:47.606Z,18.23
2019-02-23T04:10:30.594Z,16.00
2019-02-23T04:13:18.800Z,16.67
2019-02-23T04:16:01.356Z,17.67
2019-02-23T04:18:42.938Z,17.57
2019-02-23T04:21:31.193Z,17.45
2019-02-23T04:24:13.504Z,17.98
2019-02-23T04:29:59.156Z,16.20
2019-02-23T04:32:47.402Z,19.07
2019-02-23T04:35:35.639Z,17.90
2019-02-23T04:38:19.081Z,18.77
2019-02-23T04:41:07.243Z,18.10
2019-02-23T04:43:49.065Z,18.45
2019-02-23T04:46:37.342Z,19.12
2019-02-23T04:49:19.397Z,17.70
2019-02-23T04:52:07.661Z,19.20
2019-02-23T04:54:55.834Z,18.90
2019-02-23T04:57:44.065Z,19.62
2019-02-23T05:00:32.378Z,19.17
2019-02-23T05:03:14.173Z,19.12
2019-02-23T05:06:02.405Z,19.32
2019-02-23T05:08:44.549Z,19.17
2019-02-23T05:11:32.796Z,20.57
2019-02-23T05:14:14.655Z,19.42
2019-02-23T05:17:02.914Z,22.10
2019-02-23T05:19:46.221Z,18.00
2019-02-23T05:22:36.857Z,18.52
2019-02-23T05:25:19.117Z,19.82
2019-02-23T05:28:07.275Z,20.25
2019-02-23T05:30:49.128Z,22.25
2019-02-23T05:33:37.261Z,20.43
2019-02-23T05:36:25.478Z,23.52
2019-02-23T05:39:07.394Z,20.60
2019-02-23T05:42:03.040Z,22.87
2019-02-23T05:44:44.996Z,21.87
2019-02-23T05:47:33.244Z,23.55
2019-02-23T05:50:15.040Z,22.95
2019-02-23T05:53:03.344Z,23.52
2019-02-23T05:55:46.094Z,21.77
2019-02-23T05:58:34.362Z,25.97
2019-02-23T06:01:15.687Z,23.45
2019-02-23T06:04:03.937Z,21.85
2019-02-23T06:06:32.889Z,22.25
2019-02-23T06:09:14.500Z,23.65
2019-02-23T06:11:55.919Z,21.87
2019-02-23T06:14:24.932Z,22.58
2019-02-23T06:16:53.911Z,20.75
2019-02-23T06:19:42.097Z,22.52
2019-02-23T06:22:23.826Z,21.70
2019-02-23T06:25:25.699Z,23.47
2019-02-23T06:27:54.725Z,22.52
2019-02-23T06:30:42.918Z,23.47
2019-02-23T06:33:25.019Z,23.95
2019-02-23T06:36:16.120Z,24.25
2019-02-23T06:38:58.456Z,23.65
2019-02-23T06:41:49.296Z,22.27
2019-02-23T06:44:31.325Z,21.93
2019-02-23T06:47:19.506Z,24.18
2019-02-23T06:50:06.172Z,23.15
2019-02-23T06:52:54.355Z,23.92
2019-02-23T06:55:37.207Z,24.15
2019-02-23T06:58:26.025Z,23.57
2019-02-23T07:01:08.005Z,23.85
2019-02-23T07:03:56.162Z,22.40
2019-02-23T07:06:37.787Z,22.85
2019-02-23T07:09:26.080Z,21.12
2019-02-23T07:12:07.874Z,23.42
2019-02-23T07:14:56.811Z,24.20
2019-02-23T07:17:46.053Z,22.35
2019-02-23T07:20:43.811Z,23.50
2019-02-23T07:23:20.235Z,23.07
2019-02-23T07:26:08.441Z,21.75
2019-02-23T07:28:51.297Z,21.00
2019-02-23T07:31:41.122Z,22.25
2019-02-23T07:34:22.900Z,20.82
2019-02-23T07:37:06.096Z,21.80
2019-02-23T07:39:49.438Z,21.37
2019-02-23T07:42:38.866Z,22.05
2019-02-23T07:45:20.799Z,21.93
2019-02-23T07:48:12.905Z,22.98
2019-02-23T07:50:54.880Z,22.45
2019-02-23T07:53:43.080Z,21.52
2019-02-23T07:56:27.536Z,22.02
2019-02-23T07:58:56.456Z,21.57
2019-02-23T08:01:46.246Z,23.07
2019-02-23T08:04:35.108Z,22.37
2019-02-23T08:07:16.990Z,21.70
2019-02-23T08:10:26.158Z,20.57
2019-02-23T08:13:09.462Z,22.05
2019-02-23T08:15:58.013Z,20.10
2019-02-23T08:18:41.431Z,21.73
2019-02-23T08:21:43.860Z,21.15
2019-02-23T08:24:15.116Z,22.15
2019-02-23T08:27:04.819Z,22.52
2019-02-23T08:29:46.458Z,20.40
2019-02-23T08:32:55.281Z,21.42
2019-02-23T08:35:37.551Z,21.40
2019-02-23T08:38:18.978Z,19.50
2019-02-23T08:41:08.652Z,20.52
2019-02-23T08:46:54.772Z,19.25
2019-02-23T08:49:24.271Z,18.12
2019-02-23T08:52:13.427Z,18.10
2019-02-23T08:54:55.307Z,17.70
2019-02-23T08:57:43.524Z,17.27
2019-02-23T09:00:26.786Z,16.32
2019-02-23T09:03:15.034Z,15.80
2019-02-23T09:05:57.682Z,17.10
2019-02-23T09:08:26.985Z,15.78
2019-02-23T09:11:15.194Z,17.42
2019-02-23T09:14:03.427Z,17.50
2019-02-23T09:16:45.566Z,17.02
2019-02-23T09:19:34.775Z,17.80
2019-02-23T09:22:18.506Z,17.23
2019-02-23T09:25:21.461Z,16.87
2019-02-23T09:28:10.024Z,16.55
2019-02-23T09:30:52.976Z,15.75
2019-02-23T09:33:42.358Z,15.70
2019-02-23T09:36:24.251Z,16.03
2019-02-23T09:39:06.897Z,16.73
2019-02-23T09:41:55.136Z,16.07
2019-02-23T09:44:37.339Z,16.17
2019-02-23T09:47:06.548Z,16.10
2019-02-23T09:49:55.441Z,14.87
2019-02-23T09:52:46.176Z,13.40
2019-02-23T09:55:31.790Z,15.10
2019-02-23T09:58:20.127Z,14.70
2019-02-23T10:01:02.303Z,15.60
2019-02-23T10:03:50.528Z,14.60
2019-02-23T10:06:33.602Z,13.10
2019-02-23T10:09:21.971Z,13.10
2019-02-23T10:12:04.651Z,14.03
2019-02-23T10:14:48.661Z,13.63
2019-02-23T10:17:38.518Z,13.77
2019-02-23T10:20:20.179Z,13.37
2019-02-23T10:23:09.845Z,12.80
2019-02-23T10:25:51.786Z,12.77
2019-02-23T10:28:40.134Z,12.37
2019-02-23T10:31:21.917Z,11.80
2019-02-23T10:34:10.718Z,12.20
2019-02-23T10:36:53.981Z,12.23
2019-02-23T10:39:42.155Z,11.37
2019-02-23T10:42:24.164Z,11.07
2019-02-23T10:45:13.140Z,11.67
2019-02-23T10:47:56.328Z,10.97
2019-02-23T10:50:45.586Z,10.30
2019-02-23T10:53:32.854Z,10.17
2019-02-23T10:56:19.791Z,10.00
2019-02-23T10:59:01.505Z,9.80
2019-02-23T11:01:49.667Z,9.40
2019-02-23T11:04:31.918Z,9.77
2019-02-23T11:07:20.295Z,10.73
2019-02-23T11:10:03.430Z,9.90
2019-02-23T11:12:33.920Z,9.23
2019-02-23T11:15:03.361Z,8.67
2019-02-23T11:17:32.363Z,8.47
2019-02-23T11:20:01.950Z,8.60
2019-02-23T11:22:31.557Z,8.20
2019-02-23T11:25:00.509Z,8.00
2019-02-23T11:27:29.884Z,7.93
2019-02-23T11:29:59.215Z,8.20
2019-02-23T11:32:28.177Z,7.87
2019-02-23T11:34:57.364Z,7.40
2019-02-23T11:37:26.260Z,8.17
2019-02-23T11:39:55.215Z,7.23
2019-02-23T11:42:24.563Z,7.10
2019-02-23T11:44:55.159Z,7.50
2019-02-23T11:47:24.301Z,6.20
2019-02-23T11:49:53.522Z,5.50
2019-02-23T11:52:23.719Z,6.43
2019-02-23T11:54:52.720Z,6.20
2019-02-23T11:57:21.767Z,6.00
2019-02-23T11:59:53.827Z,8.57
2019-02-23T12:02:22.804Z,5.90
2019-02-23T12:04:51.717Z,5.50
2019-02-23T12:07:20.612Z,5.70
2019-02-23T12:09:51.063Z,5.27
2019-02-23T12:12:20.059Z,6.20
2019-02-23T12:14:49.075Z,6.70
2019-02-23T12:17:19.739Z,6.40
2019-02-23T12:19:49.124Z,5.70
2019-02-23T12:22:20.927Z,5.03
2019-02-23T12:24:50.810Z,4.57
2019-02-23T12:27:20.159Z,6.27
2019-02-23T12:29:53.762Z,5.87
2019-02-23T12:32:22.776Z,5.37
2019-02-23T12:34:51.745Z,6.07
2019-02-23T12:37:21.164Z,4.77
2019-02-23T12:39:52.041Z,4.83
2019-02-23T12:42:21.025Z,5.37
2019-02-23T12:44:50.004Z,5.25
2019-02-23T12:47:19.162Z,5.87
2019-02-23T12:49:49.909Z,5.75
2019-02-23T12:52:20.468Z,6.15
2019-02-23T12:54:50.799Z,5.08
2019-02-23T12:57:19.726Z,5.92
2019-02-23T12:59:50.562Z,5.83
2019-02-23T13:02:19.500Z,5.40
2019-02-23T13:04:53.244Z,6.33
2019-02-23T13:07:23.323Z,5.80
2019-02-23T13:09:52.308Z,4.70
2019-02-23T13:12:34.107Z,4.20
2019-02-23T13:15:07.136Z,5.17
2019-02-23T13:18:07.273Z,5.50
2019-02-23T13:20:57.214Z,4.53
2019-02-23T13:23:44.683Z,4.97
2019-02-23T13:26:25.159Z,4.77
2019-02-23T13:29:15.385Z,4.60
2019-02-23T13:31:55.714Z,4.90
2019-02-23T13:34:42.516Z,4.28
2019-02-23T13:37:26.484Z,4.10
2019-02-23T13:40:14.598Z,4.40
2019-02-23T13:42:59.417Z,4.10
2019-02-23T13:45:41.172Z,4.10
2019-02-23T13:48:24.685Z,4.10
2019-02-23T13:51:11.074Z,5.20
2019-02-23T13:53:56.618Z,4.08
2019-02-23T13:56:28.558Z,4.35
2019-02-23T13:59:34.626Z,4.30
2019-02-23T14:02:15.866Z,4.37
2019-02-23T14:05:12.612Z,3.85
2019-02-23T14:08:08.102Z,4.12
2019-02-23T14:11:06.269Z,4.15
2019-02-23T14:13:46.822Z,4.47
2019-02-23T14:16:35.759Z,6.53
2019-02-23T14:19:11.099Z,4.22
2019-02-23T14:21:58.956Z,4.83
2019-02-23T14:24:51.857Z,4.00
2019-02-23T14:27:38.877Z,3.80
2019-02-23T14:30:25.810Z,3.55
2019-02-23T14:33:33.122Z,4.35
2019-02-23T14:36:38.031Z,4.22
2019-02-23T14:39:09.910Z,4.97
2019-02-23T14:41:48.058Z,4.87
2019-02-23T14:44:36.392Z,5.35
2019-02-23T14:47:23.046Z,3.83
2019-02-23T14:50:03.818Z,4.20
2019-02-23T14:52:36.230Z,4.47
2019-02-23T14:55:13.673Z,4.67
2019-02-23T14:58:07.102Z,4.37
2019-02-23T15:01:04.504Z,5.17
2019-02-23T15:03:48.106Z,4.58
2019-02-23T15:06:36.125Z,4.00
2019-02-23T15:09:28.829Z,4.78
2019-02-23T15:12:03.018Z,4.37
2019-02-23T15:14:43.280Z,4.50
2019-02-23T15:17:38.776Z,4.10
2019-02-23T15:20:42.045Z,4.40
2019-02-23T15:23:15.833Z,3.58
2019-02-23T15:26:10.483Z,4.00
2019-02-23T15:28:53.730Z,4.17
2019-02-23T15:31:53.436Z,3.20
2019-02-23T15:34:43.483Z,4.20
2019-02-23T15:37:29.907Z,3.75
2019-02-23T15:40:14.334Z,3.00
2019-02-23T15:42:55.788Z,4.25
2019-02-23T15:45:39.382Z,4.05
2019-02-23T15:48:17.013Z,5.28
2019-02-23T15:50:47.378Z,4.62
2019-02-23T15:53:16.388Z,4.58
2019-02-23T15:55:46.689Z,4.47
2019-02-23T15:58:16.663Z,4.67
2019-02-23T16:00:46.419Z,4.85
2019-02-23T16:03:17.231Z,4.53
2019-02-23T16:05:47.104Z,4.47
2019-02-23T16:08:16.122Z,4.78
2019-02-23T16:10:45.315Z,5.50
2019-02-23T16:13:14.436Z,5.17
2019-02-23T16:15:45.387Z,4.83
2019-02-23T16:18:15.774Z,4.83
2019-02-23T16:20:46.531Z,4.30
2019-02-23T16:23:19.720Z,4.80
2019-02-23T16:25:48.711Z,5.05
2019-02-23T16:28:18.292Z,4.58
2019-02-23T16:30:48.872Z,4.40
2019-02-23T16:33:17.715Z,4.83
2019-02-23T16:35:48.541Z,5.42
2019-02-23T16:38:17.746Z,4.95
2019-02-23T16:40:50.222Z,4.95
2019-02-23T16:43:18.605Z,4.80
2019-02-23T16:45:48.971Z,4.12
2019-02-23T16:48:17.850Z,4.47
2019-02-23T16:50:47.372Z,5.20
2019-02-23T16:53:17.611Z,4.53
2019-02-23T16:55:51.511Z,4.47
2019-02-23T16:58:17.305Z,4.58
2019-02-23T17:00:46.155Z,5.17
2019-02-23T17:03:16.232Z,5.22
2019-02-23T17:05:46.675Z,4.05
2019-02-23T17:08:15.590Z,4.03
2019-02-23T17:10:46.085Z,5.22
2019-02-23T17:13:18.638Z,4.60
2019-02-23T17:15:49.340Z,5.33
2019-02-23T17:18:18.279Z,5.28
2019-02-23T17:20:47.249Z,5.85
2019-02-23T17:23:16.099Z,6.75
2019-02-23T17:26:03.190Z,5.08
2019-02-23T17:28:22.244Z,5.28
2019-02-23T17:30:51.187Z,6.10
2019-02-23T17:33:21.196Z,5.40
2019-02-23T17:35:56.568Z,5.08
2019-02-23T17:38:26.085Z,5.25
2019-02-23T17:40:55.221Z,5.33
2019-02-23T17:43:24.714Z,4.72
2019-02-23T17:45:53.624Z,5.37
2019-02-23T17:48:24.445Z,4.55
2019-02-23T17:50:53.996Z,5.53
2019-02-23T17:53:24.347Z,4.28
2019-02-23T17:55:54.194Z,4.80
2019-02-23T17:58:24.299Z,4.20
2019-02-23T18:00:54.186Z,4.87
2019-02-23T18:03:23.117Z,4.65
2019-02-23T18:05:53.340Z,4.47
2019-02-23T18:08:25.207Z,4.83
2019-02-23T18:10:54.608Z,3.95
2019-02-23T18:13:23.642Z,4.15
2019-02-23T18:15:54.566Z,4.10
2019-02-23T18:18:23.590Z,5.45
2019-02-23T18:20:53.554Z,4.75
2019-02-23T18:23:27.084Z,4.55
2019-02-23T18:25:58.585Z,4.45
2019-02-23T18:28:27.875Z,4.37
2019-02-23T18:30:57.413Z,4.62
2019-02-23T18:33:28.361Z,4.20
2019-02-23T18:35:57.314Z,3.90
2019-02-23T18:38:26.288Z,4.12
2019-02-23T18:40:57.916Z,4.97
2019-02-23T18:43:27.652Z,4.00
2019-02-23T18:45:58.333Z,4.40
2019-02-23T18:48:27.802Z,4.40
2019-02-23T18:50:58.449Z,5.50
2019-02-23T18:53:27.443Z,4.15
2019-02-23T18:55:59.570Z,4.45
2019-02-23T18:58:28.500Z,4.10
2019-02-23T19:01:02.431Z,4.42
2019-02-23T19:03:32.803Z,4.15
2019-02-23T19:06:03.257Z,4.40
2019-02-23T19:08:32.221Z,4.30
2019-02-23T19:11:05.670Z,4.17
2019-02-23T19:13:35.244Z,4.47
2019-02-23T19:16:07.101Z,4.70
2019-02-23T19:18:36.050Z,4.70
2019-02-23T19:21:04.917Z,3.77
2019-02-23T19:23:35.661Z,4.65
2019-02-23T19:26:04.688Z,4.22
2019-02-23T19:28:33.534Z,4.40
2019-02-23T19:31:02.503Z,4.37
2019-02-23T19:33:32.787Z,4.33
2019-02-23T19:36:02.569Z,4.90
2019-02-23T19:38:31.579Z,4.17
2019-02-23T19:41:01.470Z,4.65
2019-02-23T19:43:36.772Z,4.08
2019-02-23T19:46:06.104Z,4.45
2019-02-23T19:48:35.228Z,4.08
2019-02-23T19:51:08.625Z,5.08
2019-02-23T19:53:37.917Z,4.95
2019-02-23T19:56:06.807Z,4.60
2019-02-23T19:58:37.924Z,4.62
2019-02-23T20:01:07.328Z,5.22
2019-02-23T20:03:36.254Z,4.92
2019-02-23T20:06:05.599Z,4.85
2019-02-23T20:08:34.571Z,5.17
2019-02-23T20:11:06.168Z,5.45
2019-02-23T20:13:35.151Z,4.85
2019-02-23T20:16:06.263Z,5.47
2019-02-23T20:18:35.285Z,5.95
2019-02-23T20:21:04.700Z,4.85
2019-02-23T20:23:33.588Z,4.50
2019-02-23T20:26:02.540Z,5.20
2019-02-23T20:28:31.923Z,5.42
2019-02-23T20:31:03.551Z,5.05
2019-02-23T20:33:32.546Z,5.40
2019-02-23T20:36:02.098Z,5.33
2019-02-23T20:38:34.381Z,5.28
2019-02-23T20:41:05.175Z,5.37
2019-02-23T20:43:38.532Z,5.58
2019-02-23T20:46:09.234Z,5.42
2019-02-23T20:48:39.836Z,5.65
2019-02-23T20:51:08.733Z,5.85
2019-02-23T20:53:37.898Z,4.95
2019-02-23T20:56:06.859Z,5.85
2019-02-23T20:58:36.178Z,4.90
2019-02-23T21:01:05.633Z,5.83
2019-02-23T21:03:35.228Z,6.15
2019-02-23T21:06:05.087Z,6.53
2019-02-23T21:08:36.009Z,6.65
2019-02-23T21:11:05.442Z,7.92
2019-02-23T21:13:34.304Z,7.75
2019-02-23T21:16:03.298Z,7.50
2019-02-23T21:18:35.049Z,7.40
2019-02-23T21:21:04.111Z,6.50
2019-02-23T21:23:33.438Z,5.22
2019-02-23T21:26:04.040Z,5.30
2019-02-23T21:28:35.283Z,5.75
2019-02-23T21:31:04.143Z,4.67
2019-02-23T21:33:34.667Z,5.75
2019-02-23T21:36:03.534Z,4.90
2019-02-23T21:38:33.389Z,6.78
2019-02-23T21:41:02.521Z,6.22
2019-02-23T21:43:31.583Z,5.20
2019-02-23T21:46:00.600Z,5.50
2019-02-23T21:48:29.560Z,5.83
2019-02-23T21:51:00.484Z,6.33
2019-02-23T21:53:32.425Z,6.75
2019-02-23T21:56:01.360Z,5.78
2019-02-23T21:58:30.346Z,4.85
2019-02-23T22:00:59.236Z,5.65
2019-02-23T22:03:28.223Z,6.12
2019-02-23T22:05:57.733Z,5.85
2019-02-23T22:08:26.604Z,5.97
2019-02-23T22:10:55.624Z,6.08
2019-02-23T22:13:31.861Z,5.65
2019-02-23T22:16:07.692Z,6.22
2019-02-23T22:18:36.574Z,6.05
2019-02-23T22:21:11.794Z,5.90
2019-02-23T22:23:40.914Z,6.80
2019-02-23T22:26:09.843Z,5.00
2019-02-23T22:28:38.702Z,5.45
2019-02-23T22:31:07.636Z,4.83
2019-02-23T22:33:36.848Z,5.22
2019-02-23T22:36:05.756Z,5.62
2019-02-23T22:38:34.664Z,4.87
2019-02-23T22:41:04.179Z,5.28
2019-02-23T22:43:33.116Z,5.25
2019-02-23T22:46:05.353Z,5.65
2019-02-23T22:48:35.797Z,5.20
2019-02-23T22:51:04.946Z,5.35
2019-02-23T22:53:33.938Z,5.95
2019-02-23T22:56:03.337Z,5.20
2019-02-23T22:58:32.271Z,5.15
2019-02-23T23:01:05.122Z,4.65
2019-02-23T23:03:34.123Z,5.33
2019-02-23T23:06:03.008Z,5.12
2019-02-23T23:08:31.947Z,5.08
2019-02-23T23:11:00.850Z,5.58
2019-02-23T23:13:30.294Z,4.83
2019-02-23T23:15:59.284Z,4.78
2019-02-23T23:18:28.225Z,5.70
2019-02-23T23:20:57.297Z,5.35
2019-02-23T23:23:26.189Z,5.58
2019-02-23T23:25:55.782Z,4.83
2019-02-23T23:28:25.016Z,4.45
2019-02-23T23:30:54.302Z,5.03
2019-02-23T23:33:23.246Z,5.10
2019-02-23T23:35:52.780Z,5.30
2019-02-23T23:38:24.823Z,5.30
2019-02-23T23:40:55.722Z,3.65
2019-02-23T23:43:25.690Z,6.05
2019-02-23T23:45:57.218Z,4.83
2019-02-23T23:48:28.806Z,5.20
2019-02-23T23:50:58.029Z,5.08
2019-02-23T23:53:26.888Z,5.47
2019-02-23T23:55:56.631Z,5.37
2019-02-23T23:58:26.022Z,4.95
